Time;durP1;ratioP1;P1;durP2;ratioP2;P2;SDS_P1;SDS_P2;PMS_P1;PMS_P2;Temp;Humidity;BMP_temperature;BMP_pressure;BME280_temperature;BME280_humidity;BME280_pressure;Samples;Min_cycle;Max_cycle;Signal;HPM_P1;HPM_P2
2021/12/13 00:02:19;;;;;;;46.60;21.50;;;;;;;-3.18;93.50;100791.19;4962282;29;19915;-60
2021/12/13 00:05:11;;;;;;;43.60;20.73;;;;;;;-3.16;93.06;100833.53;4963369;29;20041;-60
2021/12/13 00:08:04;;;;;;;49.72;21.83;;;;;;;-3.43;93.08;100739.25;4963107;29;20050;-59
2021/12/13 00:10:54;;;;;;;53.47;23.00;;;;;;;-2.96;92.84;100831.19;4961183;29;20062;-60
2021/12/13 00:13:45;;;;;;;52.33;25.52;;;;;;;-2.98;92.87;100812.47;4972987;28;20035;-58
2021/12/13 00:16:34;;;;;;;53.42;23.58;;;;;;;-3.37;93.71;100767.44;4961999;29;20336;-59
2021/12/13 00:19:24;;;;;;;55.67;23.90;;;;;;;-3.13;93.45;100821.03;4948901;29;20065;-59
2021/12/13 00:22:16;;;;;;;50.22;22.52;;;;;;;-3.04;93.42;100800.38;4962022;29;20039;-59
2021/12/13 00:25:18;;;;;;;53.33;24.23;;;;;;;-3.39;92.87;100741.16;4960334;29;20039;-58
2021/12/13 00:28:10;;;;;;;;;;;;;;;-3.03;93.25;100812.25;4963020;29;20050;-60
2021/12/13 00:31:01;;;;;;;50.60;22.33;;;;;;;-3.14;93.23;100819.28;4955077;29;19911;-60
2021/12/13 00:34:19;;;;;;;48.67;23.70;;;;;;;-3.47;93.05;100755.94;4954428;28;20086;-60
2021/12/13 00:37:40;;;;;;;50.47;23.77;;;;;;;-2.91;93.10;100823.81;4985013;28;20885;-60
2021/12/13 00:40:33;;;;;;;50.60;25.45;;;;;;;-2.82;92.32;100831.88;4958443;29;20047;-60
2021/12/13 00:43:28;;;;;;;54.35;24.25;;;;;;;-2.85;91.29;100837.69;4961178;29;20038;-60
2021/12/13 00:46:16;;;;;;;49.10;24.50;;;;;;;-2.82;91.83;100819.19;4955730;29;20042;-60
2021/12/13 00:49:07;;;;;;;55.28;24.70;;;;;;;-3.04;91.09;100795.28;4954615;29;20031;-61
2021/12/13 00:51:56;;;;;;;47.67;21.73;;;;;;;-2.79;91.55;100843.06;4960580;29;20318;-60
2021/12/13 00:54:43;;;;;;;49.92;23.35;;;;;;;-2.83;91.37;100827.63;4957388;29;20043;-59
2021/12/13 00:57:29;;;;;;;54.17;23.95;;;;;;;-2.76;91.74;100829.66;4962077;29;20034;-59
2021/12/13 01:00:27;;;;;;;50.92;23.90;;;;;;;-2.72;91.20;100825.59;4960873;29;20034;-60
2021/12/13 01:03:15;;;;;;;48.30;22.85;;;;;;;-2.93;91.40;100823.72;4958306;28;20023;-60
2021/12/13 01:06:38;;;;;;;53.42;23.92;;;;;;;-2.97;91.39;100819.28;4951691;29;20125;-59
2021/12/13 01:09:42;;;;;;;52.13;24.08;;;;;;;-2.77;91.96;100823.72;4960658;29;20399;-59
2021/12/13 01:12:29;;;;;;;47.72;22.98;;;;;;;-2.77;91.31;100821.19;4960922;29;20047;-60
2021/12/13 01:15:33;;;;;;;52.38;24.92;;;;;;;-3.04;91.27;100742.09;4956010;29;20027;-59
2021/12/13 01:19:23;;;;;;;47.38;22.95;;;;;;;-3.02;90.73;100732.03;4960984;29;20332;-60
2021/12/13 01:22:27;;;;;;;49.78;22.55;;;;;;;-2.88;91.72;100798.63;4953668;29;20051;-59
2021/12/13 01:25:39;;;;;;;50.17;23.13;;;;;;;-3.02;91.84;100803.88;4952324;29;20031;-60
2021/12/13 01:28:39;;;;;;;49.65;23.02;;;;;;;-3.47;92.36;100734.81;4961201;29;20043;-60
2021/12/13 01:31:34;;;;;;;51.03;24.30;;;;;;;-2.98;92.30;100792.22;4947389;29;20090;-59
2021/12/13 01:34:23;;;;;;;57.63;24.30;;;;;;;-3.20;92.53;100765.78;4958468;29;20113;-59
2021/12/13 01:37:15;;;;;;;52.03;24.15;;;;;;;-2.90;92.36;100807.81;4961388;29;20039;-59
2021/12/13 01:40:13;;;;;;;53.08;25.38;;;;;;;-3.30;91.99;100735.72;4950392;28;20039;-60
2021/12/13 01:43:06;;;;;;;62.05;26.50;;;;;;;-2.99;92.08;100783.75;4955635;29;20103;-59
2021/12/13 01:45:54;;;;;;;59.38;24.45;;;;;;;-3.17;92.34;100791.25;4950261;29;20062;-59
2021/12/13 01:48:43;;;;;;;62.92;25.63;;;;;;;-3.04;92.61;100800.38;4944740;29;20102;-59
2021/12/13 01:51:33;;;;;;;66.43;27.70;;;;;;;-3.02;93.08;100790.31;4957254;29;20208;-59
2021/12/13 01:54:21;;;;;;;58.80;27.50;;;;;;;-3.30;92.81;100731.50;4955244;29;20414;-59
2021/12/13 01:57:23;;;;;;;57.60;25.98;;;;;;;-2.85;92.46;100796.25;4958393;29;20031;-59
2021/12/13 02:00:21;;;;;;;57.33;26.70;;;;;;;-2.81;91.92;100762.66;4951718;29;20403;-60
2021/12/13 02:03:07;;;;;;;60.05;26.75;;;;;;;-2.81;91.63;100796.50;4958982;29;20046;-59
2021/12/13 02:05:53;;;;;;;59.80;26.77;;;;;;;-2.77;91.54;100800.91;4960058;29;20242;-59
2021/12/13 02:08:39;;;;;;;61.70;28.23;;;;;;;-2.75;92.63;100775.66;4952428;29;20062;-60
2021/12/13 02:11:28;;;;;;;73.05;28.83;;;;;;;-2.98;91.70;100731.41;4959627;29;20063;-60
2021/12/13 02:14:18;;;;;;;65.85;28.60;;;;;;;-3.09;91.54;100718.22;4961448;28;20099;-59
2021/12/13 02:17:11;;;;;;;70.22;27.70;;;;;;;-2.88;91.96;100785.94;4958567;29;20518;-59
2021/12/13 02:20:02;;;;;;;75.18;30.20;;;;;;;-3.15;92.49;100730.53;4959385;29;20150;-59
2021/12/13 02:22:52;;;;;;;73.93;27.67;;;;;;;-3.10;91.73;100708.84;4959318;29;20042;-59
2021/12/13 02:25:43;;;;;;;65.50;29.27;;;;;;;-2.95;92.36;100706.19;4956862;29;20359;-59
2021/12/13 02:28:33;;;;;;;68.07;28.60;;;;;;;-2.60;91.56;100767.91;4959486;29;20042;-59
2021/12/13 02:31:24;;;;;;;71.00;30.25;;;;;;;-2.65;91.69;100772.78;4959922;29;20023;-59
2021/12/13 02:34:14;;;;;;;73.05;31.30;;;;;;;-3.02;92.10;100716.81;4959253;29;20156;-59
2021/12/13 02:37:01;;;;;;;72.55;30.70;;;;;;;-2.82;92.18;100750.75;4959827;29;20382;-59
2021/12/13 02:39:56;;;;;;;80.85;31.10;;;;;;;-3.03;92.04;100699.91;4955318;29;20027;-59
2021/12/13 02:42:42;;;;;;;78.28;31.58;;;;;;;-2.51;91.82;100754.81;4957783;28;20232;-59
2021/12/13 02:45:39;;;;;;;74.07;31.13;;;;;;;-3.17;91.97;100686.53;4959398;29;20240;-59
2021/12/13 02:49:05;;;;;;;75.57;30.73;;;;;;;-2.66;91.81;100742.28;4958165;29;20023;-59
2021/12/13 02:51:59;;;;;;;82.25;31.92;;;;;;;-3.15;92.20;100669.75;4958214;29;20069;-58
2021/12/13 02:54:52;;;;;;;80.38;32.10;;;;;;;-2.99;91.57;100732.22;4957571;29;20027;-59
2021/12/13 02:57:43;;;;;;;83.65;33.33;;;;;;;-2.89;92.94;100759.75;4951322;29;20043;-60
2021/12/13 03:00:47;;;;;;;71.53;29.63;;;;;;;-3.02;93.28;100765.84;4944685;29;20031;-59
2021/12/13 03:03:39;;;;;;;83.75;32.15;;;;;;;-3.41;92.82;100692.09;4958774;29;20039;-60
2021/12/13 03:06:42;;;;;;;81.78;31.77;;;;;;;-2.80;93.40;100733.97;4945360;29;20074;-60
2021/12/13 03:09:31;;;;;;;75.72;31.85;;;;;;;-2.83;92.26;100769.31;4958591;28;20098;-61
2021/12/13 03:12:18;;;;;;;72.30;28.58;;;;;;;-2.89;92.31;100757.22;4945785;29;20338;-60
2021/12/13 03:15:11;;;;;;;77.05;29.88;;;;;;;-3.03;92.23;100690.63;4955742;29;20039;-59
2021/12/13 03:18:12;;;;;;;65.35;27.60;;;;;;;-2.62;91.51;100746.72;4955519;28;20027;-59
2021/12/13 03:21:01;;;;;;;68.00;29.30;;;;;;;-2.45;91.62;100745.00;4948408;29;20228;-59
2021/12/13 03:24:00;;;;;;;54.55;24.30;;;;;;;-2.65;91.12;100724.59;4951670;29;20074;-60
2021/12/13 03:27:00;;;;;;;50.28;21.05;;;;;;;-2.68;91.59;100739.66;4959166;28;20027;-60
2021/12/13 03:30:00;;;;;;;47.67;19.83;;;;;;;-2.62;90.44;100739.97;4963074;29;20252;-59
2021/12/13 03:32:58;;;;;;;42.97;20.13;;;;;;;-2.51;91.21;100722.75;4962579;29;20044;-60
2021/12/13 03:35:56;;;;;;;42.15;19.60;;;;;;;-2.68;90.08;100693.16;4962561;29;20066;-58
2021/12/13 03:38:50;;;;;;;45.55;20.33;;;;;;;-2.81;90.17;100672.28;4962080;29;20097;-57
2021/12/13 03:41:40;;;;;;;42.83;20.02;;;;;;;-2.79;89.91;100652.94;4961787;29;20291;-58
2021/12/13 03:44:39;;;;;;;45.92;21.55;;;;;;;-2.34;89.65;100735.34;4947236;29;20024;-58
2021/12/13 03:47:34;;;;;;;52.00;22.08;;;;;;;-2.50;90.17;100706.72;4956707;28;20063;-58
2021/12/13 03:50:25;;;;;;;44.72;19.50;;;;;;;-2.80;89.85;100645.28;4960820;29;20027;-58
2021/12/13 03:53:19;;;;;;;52.15;21.45;;;;;;;-2.41;89.96;100716.41;4961472;29;20035;-59
2021/12/13 03:56:11;;;;;;;47.78;20.00;;;;;;;-2.67;89.92;100664.47;4958085;29;20030;-58
2021/12/13 03:59:02;;;;;;;41.83;19.38;;;;;;;-2.65;90.39;100666.28;4951652;29;20583;-58
2021/12/13 04:01:53;;;;;;;46.30;21.37;;;;;;;-2.35;90.19;100723.44;4957263;29;20143;-59
2021/12/13 04:04:43;;;;;;;39.58;19.00;;;;;;;-3.00;90.06;100651.91;4962268;29;20134;-55
2021/12/13 04:07:34;;;;;;;47.72;19.77;;;;;;;-2.51;90.24;100726.94;4960668;29;20043;-57
2021/12/13 04:10:36;;;;;;;42.53;19.33;;;;;;;-2.68;90.17;100668.69;4960295;29;20094;-57
2021/12/13 04:13:26;;;;;;;42.92;20.20;;;;;;;-2.36;90.43;100724.28;4960590;29;20546;-58
2021/12/13 04:16:18;;;;;;;47.78;20.35;;;;;;;-2.80;91.24;100718.78;4961002;29;20055;-57
2021/12/13 04:19:10;;;;;;;51.97;20.88;;;;;;;-2.76;91.54;100682.66;4960606;29;20332;-56
2021/12/13 04:22:03;;;;;;;44.40;20.45;;;;;;;-2.73;91.62;100682.78;4959463;28;20039;-57
2021/12/13 04:25:12;;;;;;;40.03;19.67;;;;;;;-2.68;91.77;100704.19;4960141;29;20055;-56
2021/12/13 04:28:12;;;;;;;45.20;20.02;;;;;;;-2.64;91.63;100693.41;4956212;29;20043;-55
2021/12/13 04:31:02;;;;;;;44.97;20.70;;;;;;;-3.01;91.59;100657.75;4959226;29;20363;-57
2021/12/13 04:33:54;;;;;;;48.30;22.27;;;;;;;-2.96;91.48;100634.38;4959967;29;20059;-54
2021/12/13 04:36:49;;;;;;;42.53;20.98;;;;;;;-2.50;90.93;100693.19;4952334;28;20023;-56
2021/12/13 04:39:36;;;;;;;47.05;22.77;;;;;;;-2.33;90.59;100699.03;4953548;29;20040;-56
2021/12/13 04:42:24;;;;;;;50.78;23.35;;;;;;;-2.51;90.84;100691.44;4960140;29;20349;-57
2021/12/13 04:45:13;;;;;;;46.08;21.05;;;;;;;-2.43;91.03;100701.13;4959629;29;20043;-57
2021/12/13 04:48:16;;;;;;;46.28;21.45;;;;;;;-2.85;90.56;100632.38;4953251;29;20369;-55
2021/12/13 04:51:14;;;;;;;46.63;21.42;;;;;;;-2.34;90.60;100695.63;4960329;29;20395;-56
2021/12/13 04:54:00;;;;;;;46.97;21.17;;;;;;;-2.33;90.52;100694.84;4959562;29;20043;-55
2021/12/13 04:56:47;;;;;;;54.55;22.80;;;;;;;-2.56;90.63;100660.78;4957478;29;20027;-56
2021/12/13 04:59:35;;;;;;;48.80;22.17;;;;;;;-2.22;90.28;100707.13;4961316;29;20213;-56
2021/12/13 05:02:24;;;;;;;45.92;22.27;;;;;;;-2.21;90.14;100691.13;4986280;28;20105;-56
2021/12/13 05:05:12;;;;;;;53.38;23.13;;;;;;;-2.29;90.44;100714.47;4944086;29;20034;-56
2021/12/13 05:07:58;;;;;;;47.65;21.05;;;;;;;-2.26;90.40;100693.47;4954208;29;20332;-56
2021/12/13 05:10:48;;;;;;;46.42;20.63;;;;;;;-2.45;90.78;100700.22;4951537;29;20095;-56
2021/12/13 05:13:47;;;;;;;41.53;19.20;;;;;;;-2.45;90.39;100644.41;4954809;29;20070;-56
2021/12/13 05:16:45;;;;;;;43.25;19.85;;;;;;;-2.36;90.55;100665.94;4959205;29;20031;-56
2021/12/13 05:19:37;;;;;;;51.83;20.77;;;;;;;-2.42;90.78;100679.19;4952864;29;20046;-56
2021/12/13 05:22:23;;;;;;;43.65;21.30;;;;;;;-2.29;91.54;100698.41;4957886;29;20032;-55
2021/12/13 05:25:10;;;;;;;50.25;21.05;;;;;;;-2.34;90.74;100685.47;4959307;29;20034;-56
2021/12/13 05:28:04;;;;;;;49.03;21.13;;;;;;;-2.71;91.20;100627.94;4956157;29;20112;-56
2021/12/13 05:30:57;;;;;;;49.20;20.90;;;;;;;-2.83;91.23;100624.84;4958370;29;20126;-56
2021/12/13 05:33:53;;;;;;;56.00;22.75;;;;;;;-2.38;91.05;100686.16;4954965;29;20082;-56
2021/12/13 05:36:42;;;;;;;52.20;22.92;;;;;;;-2.28;91.12;100688.31;4955684;29;20027;-57
2021/12/13 05:39:28;;;;;;;48.60;21.75;;;;;;;-2.56;92.05;100677.69;4959648;29;20039;-56
2021/12/13 05:42:14;;;;;;;48.05;21.63;;;;;;;-2.40;92.04;100691.94;4959771;29;20287;-56
2021/12/13 05:45:00;;;;;;;55.33;21.77;;;;;;;-2.46;91.85;100690.00;4960289;29;20062;-56
2021/12/13 05:48:18;;;;;;;50.95;21.08;;;;;;;-2.39;91.87;100689.47;4957030;29;20081;-56
2021/12/13 05:51:18;;;;;;;54.97;22.08;;;;;;;-2.75;91.77;100625.22;4943978;29;20046;-57
2021/12/13 05:54:07;;;;;;;53.22;22.20;;;;;;;-2.44;91.61;100686.75;4960281;28;20102;-57
2021/12/13 05:57:04;;;;;;;58.95;24.60;;;;;;;-2.54;92.42;100689.59;4956729;29;20340;-56
2021/12/13 06:00:08;;;;;;;55.35;22.35;;;;;;;-2.48;91.79;100669.63;4957970;28;20237;-57
2021/12/13 06:03:05;;;;;;;55.22;23.20;;;;;;;-2.24;91.85;100698.59;4951275;29;20111;-57
2021/12/13 06:05:52;;;;;;;59.97;23.52;;;;;;;-2.23;92.04;100708.81;4953849;29;20045;-58
2021/12/13 06:08:53;;;;;;;62.22;23.95;;;;;;;-2.54;91.83;100722.56;4957103;29;20043;-57
2021/12/13 06:11:40;;;;;;;61.78;24.38;;;;;;;-2.46;92.22;100705.19;4959700;29;20426;-58
2021/12/13 06:14:27;;;;;;;58.08;24.20;;;;;;;-2.44;92.35;100718.81;4959008;29;20046;-57
2021/12/13 06:17:42;;;;;;;56.60;23.33;;;;;;;-2.54;92.28;100696.34;4960128;29;20035;-57
2021/12/13 06:20:41;;;;;;;60.00;24.33;;;;;;;-2.43;92.70;100697.75;4959123;29;20065;-56
2021/12/13 06:23:33;;;;;;;61.05;24.88;;;;;;;-2.46;92.68;100684.91;4941565;29;20031;-56
2021/12/13 06:26:27;;;;;;;60.58;25.15;;;;;;;-2.43;92.07;100685.06;4957739;29;20300;-57
2021/12/13 06:29:13;;;;;;;62.28;26.00;;;;;;;-2.29;91.78;100678.09;4955370;29;20035;-57
2021/12/13 06:31:59;;;;;;;62.47;26.35;;;;;;;-2.21;91.75;100689.44;4951924;28;20035;-57
2021/12/13 06:34:45;;;;;;;62.97;26.40;;;;;;;-2.27;91.33;100691.72;4957283;28;20056;-56
2021/12/13 06:37:35;;;;;;;63.78;26.10;;;;;;;-2.29;91.45;100696.72;4959853;29;20031;-57
2021/12/13 06:40:27;;;;;;;66.00;27.13;;;;;;;-2.44;92.17;100673.16;4959036;29;20102;-57
2021/12/13 06:43:31;;;;;;;67.07;26.42;;;;;;;-2.45;92.34;100673.97;4958043;28;20094;-57
2021/12/13 06:46:20;;;;;;;66.18;26.25;;;;;;;-2.33;93.09;100682.16;4958436;29;20038;-56
2021/12/13 06:49:14;;;;;;;60.42;25.30;;;;;;;-2.50;93.14;100688.09;4943962;29;20043;-58
2021/12/13 06:52:08;;;;;;;70.45;27.13;;;;;;;-2.38;92.92;100682.72;4957084;29;20019;-57
2021/12/13 06:54:57;;;;;;;60.22;26.02;;;;;;;-2.27;92.31;100681.56;4955588;29;20035;-56
2021/12/13 06:57:58;;;;;;;78.45;26.83;;;;;;;-2.41;92.20;100663.16;4957586;29;20384;-56
2021/12/13 07:00:45;;;;;;;73.35;27.63;;;;;;;-2.31;92.09;100690.72;4957045;29;20023;-57
2021/12/13 07:03:34;;;;;;;61.90;26.80;;;;;;;-2.30;92.31;100682.28;4959016;29;20135;-57
2021/12/13 07:06:23;;;;;;;60.05;23.77;;;;;;;-2.82;92.23;100637.59;4957942;29;20047;-57
2021/12/13 07:09:17;;;;;;;75.82;27.70;;;;;;;-2.44;92.48;100679.13;4960585;29;20035;-57
2021/12/13 07:12:13;;;;;;;67.35;25.83;;;;;;;-2.56;92.27;100649.78;4957293;29;20055;-55
2021/12/13 07:15:01;;;;;;;64.45;26.40;;;;;;;-2.34;91.75;100700.69;4959064;29;20063;-56
2021/12/13 07:18:02;;;;;;;67.78;27.30;;;;;;;-2.65;92.37;100633.34;4952252;28;20078;-55
2021/12/13 07:20:55;;;;;;;65.78;26.10;;;;;;;-2.36;91.94;100689.63;4944456;29;20039;-55
2021/12/13 07:23:50;;;;;;;67.05;26.70;;;;;;;-2.44;92.73;100681.66;4957617;28;20029;-55
2021/12/13 07:26:52;;;;;;;70.97;28.17;;;;;;;-2.85;92.38;100609.59;4952458;29;20023;-56
2021/12/13 07:29:44;;;;;;;63.20;26.98;;;;;;;-2.14;91.54;100690.63;4951868;29;20163;-57
2021/12/13 07:32:37;;;;;;;66.75;29.42;;;;;;;-2.41;91.32;100632.72;4952655;29;20042;-56
2021/12/13 07:35:41;;;;;;;74.97;28.40;;;;;;;-2.20;90.58;100706.41;4956342;29;20027;-55
2021/12/13 07:38:28;;;;;;;67.30;27.38;;;;;;;-2.12;90.82;100706.78;4959401;29;20263;-56
2021/12/13 07:41:14;;;;;;;67.70;28.27;;;;;;;-2.06;90.37;100702.00;4955316;29;20077;-56
2021/12/13 07:44:00;;;;;;;65.93;26.58;;;;;;;-2.03;89.78;100707.22;4959496;29;20027;-56
2021/12/13 07:47:01;;;;;;;69.20;29.65;;;;;;;-2.07;90.71;100705.31;4956922;29;20046;-56
2021/12/13 07:49:51;;;;;;;68.53;26.95;;;;;;;-2.43;90.45;100644.47;4959219;28;20106;-57
2021/12/13 07:52:39;;;;;;;63.58;26.02;;;;;;;-2.18;90.47;100714.09;4948244;28;20363;-57
2021/12/13 07:55:29;;;;;;;69.28;28.58;;;;;;;-2.43;91.15;100662.22;4953247;29;20320;-57
2021/12/13 07:58:30;;;;;;;65.68;27.30;;;;;;;-2.27;90.13;100697.69;4957973;29;20062;-57
2021/12/13 08:01:23;;;;;;;68.10;28.63;;;;;;;-2.16;90.86;100699.84;4942852;29;20100;-57
2021/12/13 08:04:26;;;;;;;67.72;27.58;;;;;;;-2.17;90.25;100708.25;4964787;28;20425;-57
2021/12/13 08:07:17;;;;;;;67.63;29.27;;;;;;;-2.11;90.44;100716.13;4957348;29;20320;-57
2021/12/13 08:10:18;;;;;;;68.53;28.02;;;;;;;-2.30;90.64;100694.97;4948741;29;20448;-57
2021/12/13 08:13:11;;;;;;;69.20;29.10;;;;;;;-2.46;89.83;100646.88;4958464;28;20039;-57
2021/12/13 08:16:07;;;;;;;66.57;29.02;;;;;;;-2.14;90.56;100698.22;4960494;29;20035;-56
2021/12/13 08:19:05;;;;;;;70.43;28.85;;;;;;;-2.35;90.14;100654.97;4961130;28;20067;-56
2021/12/13 08:21:56;;;;;;;72.50;27.83;;;;;;;-2.20;89.61;100687.81;4961888;29;20282;-56
2021/12/13 08:24:46;;;;;;;67.28;29.58;;;;;;;-2.02;90.09;100692.84;4953204;28;20039;-56
2021/12/13 08:27:43;;;;;;;66.78;27.58;;;;;;;-2.00;89.83;100707.34;4954464;29;20095;-57
2021/12/13 08:30:55;;;;;;;61.83;27.58;;;;;;;-2.31;89.29;100646.69;4946000;29;20306;-56
2021/12/13 08:33:48;;;;;;;66.45;29.17;;;;;;;-2.27;89.00;100658.72;4953623;29;20078;-56
2021/12/13 08:36:44;;;;;;;62.20;28.45;;;;;;;-1.93;88.89;100706.81;4958630;29;20086;-56
2021/12/13 08:39:34;;;;;;;65.07;28.20;;;;;;;-2.20;89.50;100642.13;4960224;29;20039;-55
2021/12/13 08:42:24;;;;;;;62.00;27.70;;;;;;;-1.83;88.83;100695.41;4957200;29;20051;-56
2021/12/13 08:45:24;;;;;;;58.40;29.42;;;;;;;-1.73;88.18;100725.50;4952937;29;20039;-57
2021/12/13 08:48:16;;;;;;;60.15;28.20;;;;;;;-1.57;88.22;100704.22;4954083;29;20035;-56
2021/12/13 08:51:03;;;;;;;64.22;28.20;;;;;;;-1.62;87.71;100684.50;4958622;28;20433;-56
2021/12/13 08:54:05;;;;;;;58.63;26.88;;;;;;;-1.51;88.25;100697.66;4950413;28;20350;-56
2021/12/13 08:56:51;;;;;;;56.25;26.30;;;;;;;-1.52;87.29;100698.47;4960597;29;20059;-56
2021/12/13 08:59:50;;;;;;;60.53;26.88;;;;;;;-1.56;88.14;100708.47;4963548;28;20064;-56
2021/12/13 09:02:41;;;;;;;59.88;26.88;;;;;;;-1.53;88.44;100707.75;4962226;29;20038;-56
2021/12/13 09:05:35;;;;;;;49.95;24.63;;;;;;;-1.54;87.31;100698.38;4963057;28;20099;-57
2021/12/13 09:08:45;;;;;;;59.17;27.35;;;;;;;-1.60;87.55;100690.50;4952973;29;20034;-56
2021/12/13 09:11:46;;;;;;;52.53;27.60;;;;;;;-1.44;87.90;100694.56;4957731;29;20040;-56
2021/12/13 09:14:35;;;;;;;51.22;25.63;;;;;;;-1.73;87.69;100689.94;4959839;28;20042;-57
2021/12/13 09:17:26;;;;;;;53.60;25.52;;;;;;;-1.56;87.98;100688.16;4955676;29;20039;-56
2021/12/13 09:20:38;;;;;;;54.70;26.58;;;;;;;-1.83;87.10;100684.41;4960628;29;20035;-56
2021/12/13 09:23:35;;;;;;;48.88;24.92;;;;;;;-1.72;88.61;100673.06;4960702;28;20216;-56
2021/12/13 09:26:26;;;;;;;49.83;24.92;;;;;;;-1.54;88.04;100669.59;4959256;28;20067;-57
2021/12/13 09:29:17;;;;;;;58.42;27.88;;;;;;;-1.57;88.11;100673.75;4950701;28;20181;-57
2021/12/13 09:32:12;;;;;;;59.92;27.48;;;;;;;-2.02;88.81;100688.66;4954845;28;20043;-54
2021/12/13 09:35:20;;;;;;;51.25;24.45;;;;;;;-1.81;88.79;100652.31;4949494;28;20175;-56
2021/12/13 09:38:26;;;;;;;53.40;26.13;;;;;;;-1.87;89.21;100647.00;4944022;28;20113;-55
2021/12/13 09:41:30;;;;;;;54.58;25.83;;;;;;;-1.68;87.92;100641.03;4954036;29;20059;-56
2021/12/13 09:44:20;;;;;;;57.00;26.33;;;;;;;-1.77;88.22;100644.94;4955626;29;20035;-56
2021/12/13 09:47:10;;;;;;;52.25;25.33;;;;;;;-1.53;88.33;100639.16;4952794;29;20045;-58
2021/12/13 09:49:56;;;;;;;53.53;24.83;;;;;;;-1.82;88.18;100651.47;4954363;29;20069;-56
2021/12/13 09:52:56;;;;;;;48.30;24.55;;;;;;;-1.88;88.72;100574.16;4951080;29;20031;-56
2021/12/13 09:55:47;;;;;;;56.83;26.02;;;;;;;-1.76;87.93;100572.16;4952868;29;20225;-56
2021/12/13 09:58:57;;;;;;;49.93;24.63;;;;;;;-1.68;87.39;100590.25;4953300;29;20042;-57
2021/12/13 10:01:44;;;;;;;53.65;26.80;;;;;;;-1.54;87.12;100631.47;4955954;29;20122;-56
2021/12/13 10:04:38;;;;;;;52.03;24.40;;;;;;;-2.03;87.22;100560.00;4955969;29;20039;-57
2021/12/13 10:07:31;;;;;;;51.42;24.85;;;;;;;-1.40;87.93;100632.94;4956812;29;20035;-56
2021/12/13 10:10:43;;;;;;;50.13;23.90;;;;;;;-1.52;87.23;100628.22;4958665;29;20065;-56
2021/12/13 10:13:35;;;;;;;51.55;24.38;;;;;;;-1.37;88.17;100648.31;4959451;28;20031;-56
2021/12/13 10:16:28;;;;;;;51.60;25.70;;;;;;;-1.32;87.51;100634.13;4958166;29;20047;-57
2021/12/13 10:19:22;;;;;;;51.67;24.33;;;;;;;-1.34;87.25;100630.69;4955686;29;20023;-56
2021/12/13 10:22:11;;;;;;;55.20;26.35;;;;;;;-1.62;86.99;100565.13;4953128;29;20050;-56
2021/12/13 10:25:10;;;;;;;48.45;25.85;;;;;;;-1.12;87.49;100632.41;4959346;29;20058;-56
2021/12/13 10:27:57;;;;;;;46.72;24.67;;;;;;;-1.13;87.60;100632.34;4947973;29;20225;-56
2021/12/13 10:31:11;;;;;;;46.92;24.75;;;;;;;-1.15;87.60;100645.00;4954035;28;20054;-56
2021/12/13 10:33:59;;;;;;;50.42;25.00;;;;;;;-1.23;86.23;100632.00;4958541;29;20102;-56
2021/12/13 10:36:51;;;;;;;50.67;25.00;;;;;;;-1.27;87.17;100631.78;4957535;28;20047;-57
2021/12/13 10:39:48;;;;;;;62.08;27.38;;;;;;;-1.12;86.59;100637.50;4955166;29;20105;-56
2021/12/13 10:42:43;;;;;;;54.53;26.55;;;;;;;-1.12;87.54;100608.69;4958992;29;20047;-56
2021/12/13 10:45:34;;;;;;;46.80;24.42;;;;;;;-0.96;87.31;100643.22;4954442;29;20379;-56
2021/12/13 10:48:22;;;;;;;48.05;24.38;;;;;;;-0.98;86.52;100630.44;4958126;28;20050;-57
2021/12/13 10:51:18;;;;;;;48.78;24.98;;;;;;;-1.03;85.76;100613.28;4954325;29;20238;-57
2021/12/13 10:54:09;;;;;;;56.72;26.63;;;;;;;-1.35;86.42;100577.22;4959258;28;20038;-57
2021/12/13 10:57:02;;;;;;;52.53;27.05;;;;;;;-1.13;86.21;100653.56;4953602;29;20260;-56
2021/12/13 10:59:49;;;;;;;50.67;25.05;;;;;;;-0.96;87.37;100633.06;4957519;29;20039;-55
2021/12/13 11:02:36;;;;;;;50.20;25.75;;;;;;;-0.91;86.59;100636.66;4958406;29;20090;-56
2021/12/13 11:05:23;;;;;;;51.08;26.30;;;;;;;-1.02;85.52;100633.66;4953793;29;20063;-56
2021/12/13 11:08:15;;;;;;;50.33;25.75;;;;;;;-1.04;86.61;100630.22;4950628;29;20371;-56
2021/12/13 11:11:09;;;;;;;57.97;27.15;;;;;;;-1.06;86.42;100642.81;4958594;29;20042;-56
2021/12/13 11:13:59;;;;;;;57.25;27.13;;;;;;;-1.38;86.56;100562.75;4955683;29;20106;-57
2021/12/13 11:16:53;;;;;;;45.72;25.48;;;;;;;-1.07;86.23;100613.16;4950015;28;20040;-56
2021/12/13 11:19:43;;;;;;;54.08;28.20;;;;;;;-1.26;86.56;100638.59;4952477;28;20039;-57
2021/12/13 11:22:32;;;;;;;53.47;26.35;;;;;;;-1.15;86.27;100626.34;4957771;29;20206;-57
2021/12/13 11:25:38;;;;;;;49.60;25.67;;;;;;;-1.04;86.57;100620.03;4958843;28;20074;-56
2021/12/13 11:28:25;;;;;;;52.90;25.65;;;;;;;-0.94;86.52;100636.50;4951802;28;20039;-55
2021/12/13 11:31:29;;;;;;;51.50;26.63;;;;;;;-1.34;86.39;100563.72;4959939;29;20035;-57
2021/12/13 11:34:33;;;;;;;52.10;25.73;;;;;;;-0.95;87.33;100625.47;4955906;29;20091;-57
2021/12/13 11:37:51;;;;;;;51.00;25.30;;;;;;;-1.00;86.09;100632.03;4957953;29;20042;-57
2021/12/13 11:40:59;;;;;;;51.83;25.92;;;;;;;-1.17;86.18;100622.88;4933166;29;20111;-57
2021/12/13 11:44:05;;;;;;;47.28;25.40;;;;;;;-1.05;86.24;100618.31;4944516;29;20036;-56
2021/12/13 11:47:29;;;;;;;51.88;26.38;;;;;;;-1.03;86.60;100606.50;4957217;28;20039;-57
2021/12/13 11:50:52;;;;;;;50.92;25.50;;;;;;;-1.05;87.41;100610.66;4909780;29;20095;-57
2021/12/13 11:53:56;;;;;;;51.50;24.58;;;;;;;-0.97;88.22;100601.69;4953322;29;20047;-55
2021/12/13 11:57:12;;;;;;;49.60;25.77;;;;;;;-1.36;87.44;100538.25;4953658;29;20118;-56
2021/12/13 12:00:13;;;;;;;49.00;24.90;;;;;;;-0.95;87.54;100605.16;4958522;29;20336;-55
2021/12/13 12:03:36;;;;;;;45.72;24.70;;;;;;;-0.78;87.41;100599.88;4958980;29;20027;-56
2021/12/13 12:07:03;;;;;;;50.17;24.95;;;;;;;-0.88;87.71;100588.47;4963258;29;20027;-57
2021/12/13 12:10:21;;;;;;;43.80;23.42;;;;;;;-0.65;86.52;100601.22;4960038;29;20054;-56
2021/12/13 12:13:30;;;;;;;46.40;25.13;;;;;;;-0.83;86.92;100591.19;4962100;29;20043;-57
2021/12/13 12:16:20;;;;;;;46.63;23.42;;;;;;;-0.96;87.32;100564.41;4960410;29;20078;-57
2021/12/13 12:19:12;;;;;;;49.22;25.60;;;;;;;-0.75;87.13;100594.91;4960812;29;20035;-56
2021/12/13 12:22:08;;;;;;;47.55;25.92;;;;;;;-0.98;86.58;100587.22;4951455;28;20054;-56
2021/12/13 12:24:57;;;;;;;47.03;25.05;;;;;;;-0.81;87.51;100609.91;4957731;28;20078;-56
2021/12/13 12:27:43;;;;;;;41.10;22.65;;;;;;;-0.73;86.81;100608.53;4962221;29;20031;-59
2021/12/13 12:30:40;;;;;;;42.67;23.30;;;;;;;-1.33;86.85;100502.81;4958599;28;20027;-56
2021/12/13 12:33:31;;;;;;;42.60;24.20;;;;;;;-0.67;86.63;100621.50;4951963;29;20039;-56
2021/12/13 12:36:39;;;;;;;44.60;24.40;;;;;;;-0.67;86.66;100626.59;4959823;29;20082;-57
2021/12/13 12:39:51;;;;;;;42.20;23.65;;;;;;;-0.71;86.92;100606.94;4960815;28;20035;-57
2021/12/13 12:42:43;;;;;;;43.53;23.90;;;;;;;-0.78;86.75;100612.59;4960576;29;20106;-57
2021/12/13 12:45:40;;;;;;;40.90;20.95;;;;;;;-0.73;86.94;100606.00;4962507;29;20059;-57
2021/12/13 12:48:34;;;;;;;44.60;24.00;;;;;;;-0.56;86.94;100624.47;4959977;29;20348;-58
2021/12/13 12:51:30;;;;;;;43.42;23.00;;;;;;;-0.53;87.03;100627.13;4960668;29;20106;-56
2021/12/13 12:54:20;;;;;;;44.60;23.85;;;;;;;-0.93;86.75;100567.06;4960949;29;20072;-56
2021/12/13 12:57:06;;;;;;;38.50;22.55;;;;;;;-0.71;85.58;100627.28;4961018;29;20138;-56
2021/12/13 12:59:52;;;;;;;43.70;24.52;;;;;;;-0.68;87.47;100636.69;4956469;29;20062;-57
2021/12/13 13:02:38;;;;;;;43.10;23.77;;;;;;;-0.74;86.19;100650.03;4960296;29;20285;-56
2021/12/13 13:05:28;;;;;;;42.00;22.23;;;;;;;-1.15;86.99;100591.63;4960992;29;20035;-55
2021/12/13 13:08:26;;;;;;;44.72;22.80;;;;;;;-1.22;87.91;100577.81;4960149;29;20058;-56
2021/12/13 13:14:20;;;;;;;39.85;23.00;;;;;;;-0.67;87.36;100633.34;4945807;29;20027;-58
2021/12/13 13:17:07;;;;;;;43.78;23.88;;;;;;;-0.61;88.31;100624.28;4959316;29;20065;-57
2021/12/13 13:20:16;;;;;;;40.40;23.40;;;;;;;-0.56;86.93;100617.69;4947408;29;20427;-56